Helen J — CFN6439 — position and weather

sailwx.info

Track history (hours):
 
Tides and Currents Weather Stations Pressure Air Temp Water Temp Dewpoint Dewpoint Depression Visibility Wind Speed Wind Dir Waves Ship Positions

Helen J

Last reported at 2018-Feb-20 05:30 UTC. Time now 2018-Feb-20 05:55 UTC.
Position N 49°17' W 123°30'.

Length 15 m; draft 3.6 m.

Type: Towing. MMSI: 316024235.

Date/timePositionNaut miles runAvg speedWind from/ knotsBaromVisibWave heightAir tempDewpointWater temp
2018-Feb-20 05:30N 49°17' W 123°30'1 2.1
2018-Feb-20 05:01N 49°17' W 123°32'1 2.0
2018-Feb-20 04:30N 49°17' W 123°34'1 2.0
2018-Feb-20 04:00N 49°17' W 123°35'1 2.0
2018-Feb-20 03:24N 49°17' W 123°37'1 1.9
2018-Feb-20 02:54N 49°16' W 123°38'1 1.9
2018-Feb-20 02:22N 49°16' W 123°40'1 2.0
2018-Feb-20 01:37N 49°15' W 123°42'2 0.8
2018-Feb-19 23:13N 49°14' W 123°44'4 1.8
2018-Feb-19 21:15N 49°15' W 123°39'1 2.3
2018-Feb-19 20:51N 49°15' W 123°37'1 2.4
2018-Feb-19 20:26N 49°16' W 123°36'1 2.5
2018-Feb-19 20:00N 49°16' W 123°34'1 2.5
2018-Feb-19 19:28N 49°17' W 123°33'1 2.5
2018-Feb-19 19:01N 49°18' W 123°32'1 2.5
2018-Feb-19 18:30N 49°19' W 123°30'1 2.1
2018-Feb-19 18:01N 49°19' W 123°29'1 2.1
2018-Feb-19 17:30N 49°20' W 123°28'1 2.3
2018-Feb-19 16:56N 49°21' W 123°27'1 2.5
2018-Feb-19 16:23N 49°22' W 123°26'1 2.2
2018-Feb-19 15:58N 49°23' W 123°25'1 2.1
2018-Feb-19 15:30N 49°24' W 123°25'1 2.0
2018-Feb-19 15:00N 49°25' W 123°27'1 1.8
2018-Feb-19 14:31N 49°26' W 123°27'0 0.9
2018-Feb-19 14:01N 49°26' W 123°28'0 0.9
2018-Feb-19 13:29N 49°26' W 123°28'0 0.9
2018-Feb-19 13:00N 49°27' W 123°28'0 0.8
2018-Feb-19 12:30N 49°27' W 123°28'0 0.9
2018-Feb-19 12:00N 49°28' W 123°28'0 0.9
2018-Feb-19 11:30N 49°28' W 123°28'0 0.8
2018-Feb-19 11:01N 49°29' W 123°28'0 0.8
2018-Feb-19 10:30N 49°29' W 123°28'0 0.9
2018-Feb-19 10:00N 49°29' W 123°27'0 0.9
2018-Feb-19 09:31N 49°30' W 123°27'0 0.2
2018-Feb-19 09:00N 49°30' W 123°27'0 0.3
2018-Feb-19 08:31N 49°30' W 123°27'0 0.3
2018-Feb-19 08:00N 49°30' W 123°27'3 5.4
2018-Feb-19 07:30N 49°27' W 123°28'5 6.4
2018-Feb-19 06:42N 49°22' W 123°30'2 9.2
2018-Feb-19 06:30N 49°21' W 123°32'4 7.8
2018-Feb-19 06:01N 49°19' W 123°37'21 0.9
2018-Feb-18 06:48N 48°58' W 123°44'0 0.7
2018-Feb-18 06:26N 48°58' W 123°44'0 0.7
2018-Feb-18 06:00N 48°58' W 123°44'0 0.7
2018-Feb-18 05:30N 48°58' W 123°45'0 0.6
2018-Feb-18 05:01N 48°58' W 123°45'0 0.8
2018-Feb-18 04:28N 48°58' W 123°46'3 0.2
2018-Feb-17 10:12N 48°56' W 123°43'2 7.8
2018-Feb-17 10:00N 48°57' W 123°44'4 6.7
2018-Feb-17 09:25N 48°60' W 123°48'1 0.7
2018-Feb-17 08:03N 48°59' W 123°47'0 1.0
2018-Feb-17 07:41N 48°59' W 123°47'0 0.8
2018-Feb-17 07:26N 48°59' W 123°47'0 0.1
2018-Feb-17 06:57N 48°59' W 123°47'0 0.7
2018-Feb-17 06:28N 48°58' W 123°46'0 0.2
2018-Feb-17 05:37N 48°58' W 123°46'0 0.1
2018-Feb-17 05:28N 48°58' W 123°46'1 2.1
2018-Feb-17 04:56N 48°59' W 123°47'1 2.3
2018-Feb-17 04:27N 48°58' W 123°46'0 0.3
2018-Feb-17 03:13N 48°58' W 123°46'1 5.6
2018-Feb-17 02:57N 48°58' W 123°44'3 5.5
2018-Feb-17 02:30N 48°56' W 123°41'3 5.7
2018-Feb-17 02:00N 48°54' W 123°38'3 5.6
2018-Feb-17 01:30N 48°52' W 123°36'3 5.3
2018-Feb-17 01:00N 48°49' W 123°35'2 4.8
2018-Feb-17 00:30N 48°47' W 123°33'3 5.2
2018-Feb-17 00:00N 48°44' W 123°34'2 3.8
2018-Feb-16 23:30N 48°45' W 123°37'0 0.6
2018-Feb-16 23:00N 48°45' W 123°37'1 1.7
2018-Feb-16 22:30N 48°45' W 123°36'1 2.2
2018-Feb-16 22:00N 48°44' W 123°35'1 1.6
2018-Feb-16 21:30N 48°45' W 123°34'1 1.2
2018-Feb-16 21:00N 48°45' W 123°34'0 0.8
2018-Feb-16 20:30N 48°46' W 123°34'1 1.1
2018-Feb-16 20:00N 48°46' W 123°34'1 1.6
2018-Feb-16 19:30N 48°47' W 123°33'1 2.1
2018-Feb-16 19:00N 48°48' W 123°33'1 1.8
2018-Feb-16 18:30N 48°49' W 123°34'1 2.3
2018-Feb-16 18:00N 48°50' W 123°35'1 2.2
2018-Feb-16 17:30N 48°51' W 123°35'1 2.2
2018-Feb-16 17:00N 48°52' W 123°36'1 2.2
2018-Feb-16 16:30N 48°53' W 123°36'1 2.1
2018-Feb-16 16:00N 48°54' W 123°37'1 2.0
2018-Feb-16 15:30N 48°54' W 123°38'1 2.0
2018-Feb-16 15:00N 48°55' W 123°40'1 2.1
2018-Feb-16 14:30N 48°56' W 123°41'1 2.1
2018-Feb-16 14:00N 48°56' W 123°42'0 0.5
2018-Feb-16 13:30N 48°57' W 123°42'0 0.3
2018-Feb-16 13:00N 48°56' W 123°42'1 1.5
2018-Feb-16 12:30N 48°56' W 123°42'0 0.2
2018-Feb-16 12:00N 48°56' W 123°42'0 0.3
2018-Feb-16 11:30N 48°56' W 123°43'0 0.7
2018-Feb-16 11:00N 48°56' W 123°43'1 1.6
2018-Feb-16 10:29N 48°57' W 123°43'1 1.8
2018-Feb-16 09:59N 48°58' W 123°43'1 1.8
2018-Feb-16 09:28N 48°59' W 123°43'2 1.8
2018-Feb-16 08:25N 49°01' W 123°43'1 1.8
2018-Feb-16 07:56N 49°01' W 123°44'2 1.6
2018-Feb-16 06:49N 49°03' W 123°45'9 2.5
2018-Feb-16 03:06N 49°09' W 123°34'110.1
2018-Feb-16 02:59N 49°10' W 123°32'4 8.6
2018-Feb-16 02:30N 49°12' W 123°27'510.0
2018-Feb-16 01:59N 49°15' W 123°20'3 5.4
2018-Feb-16 01:30N 49°15' W 123°16'0 0.2
2018-Feb-16 01:00N 49°15' W 123°16'0 0.1
2018-Feb-16 00:30N 49°15' W 123°16'1 1.8
2018-Feb-16 00:00N 49°15' W 123°17'0 0.9
2018-Feb-15 23:30N 49°16' W 123°17'0 1.0
2018-Feb-15 23:00N 49°15' W 123°18'0 0.9
2018-Feb-15 22:30N 49°15' W 123°18'1 1.4
2018-Feb-15 22:01N 49°14' W 123°18'1 2.0
2018-Feb-15 21:30N 49°14' W 123°19'1 1.8
2018-Feb-15 20:59N 49°13' W 123°20'1 1.7
2018-Feb-15 20:30N 49°12' W 123°21'1 1.7
2018-Feb-15 20:01N 49°12' W 123°22'1 1.9
2018-Feb-15 19:30N 49°12' W 123°24'1 2.2
2018-Feb-15 18:59N 49°11' W 123°26'1 2.3
2018-Feb-15 18:30N 49°11' W 123°27'1 2.4
2018-Feb-15 17:58N 49°11' W 123°29'1 2.2
2018-Feb-15 17:27N 49°10' W 123°31'1 2.3
2018-Feb-15 17:00N 49°10' W 123°32'1 2.1
2018-Feb-15 16:28N 49°09' W 123°34'4 6.9
2018-Feb-15 15:55N 49°08' W 123°39'9 2.1
2018-Feb-15 11:28N 49°10' W 123°53'9 6.3
2018-Feb-15 10:02N 49°14' W 123°41'1 8.4
2018-Feb-15 09:58N 49°14' W 123°40'4 8.2
2018-Feb-15 09:30N 49°14' W 123°34'4 7.9
2018-Feb-15 08:57N 49°17' W 123°29'4 8.1
2018-Feb-15 08:30N 49°18' W 123°24'4 8.7
2018-Feb-15 08:00N 49°19' W 123°17'4 8.4
2018-Feb-15 07:30N 49°19' W 123°11'4 7.2
2018-Feb-15 07:00N 49°18' W 123°06'0 0.3
2018-Feb-15 06:30N 49°17' W 123°06'2 4.7
2018-Feb-15 06:01N 49°19' W 123°09'510.3
2018-Feb-15 05:30N 49°18' W 123°17'510.4
2018-Feb-15 05:00N 49°16' W 123°24'610.2
2018-Feb-15 04:28N 49°16' W 123°32'6 0.5
2018-Feb-14 17:09N 49°10' W 123°36'1 4.2
2018-Feb-14 16:56N 49°10' W 123°35'2 4.5
2018-Feb-14 16:29N 49°09' W 123°32'2 4.8
2018-Feb-14 16:00N 49°08' W 123°29'3 5.5
2018-Feb-14 15:30N 49°08' W 123°25'3 5.3
2018-Feb-14 15:00N 49°07' W 123°21'2 5.1
2018-Feb-14 14:30N 49°07' W 123°17'3 5.8
2018-Feb-14 14:00N 49°08' W 123°13'2 5.0
2018-Feb-14 13:31N 49°07' W 123°10'2 4.4
2018-Feb-14 13:00N 49°07' W 123°06'2 4.4
2018-Feb-14 12:30N 49°08' W 123°04'2 4.8
2018-Feb-14 12:00N 49°09' W 123°01'2 4.4
2018-Feb-14 11:30N 49°09' W 122°57'1 1.1
2018-Feb-14 11:00N 49°10' W 122°58'1 2.1
2018-Feb-14 10:31N 49°09' W 122°60'4 7.4
2018-Feb-14 09:59N 49°07' W 123°05'3 6.9
2018-Feb-14 09:30N 49°07' W 123°09'3 6.9
2018-Feb-14 09:00N 49°08' W 123°15'3 6.4
2018-Feb-14 08:29N 49°06' W 123°19'1 3.0
2018-Feb-14 08:00N 49°06' W 123°21'4 5.3
2018-Feb-14 07:19N 49°08' W 123°26'2 5.0
2018-Feb-14 06:57N 49°09' W 123°29'2 5.1
2018-Feb-14 06:29N 49°10' W 123°32'13 1.1
2018-Feb-13 18:54N 49°09' W 123°51'0 0.1
2018-Feb-13 15:49N 49°09' W 123°51'0 1.1
2018-Feb-13 15:30N 49°09' W 123°51'3 4.2
2018-Feb-13 14:41N 49°10' W 123°56'0 0.0
2018-Feb-13 13:59N 49°10' W 123°56'3 5.3
2018-Feb-13 13:25N 49°09' W 123°52'3 1.5
2018-Feb-13 11:45N 49°10' W 123°55'11 6.2
2018-Feb-13 09:56N 49°14' W 123°39'4 9.7
2018-Feb-13 09:29N 49°14' W 123°33'5 9.2
2018-Feb-13 08:58N 49°15' W 123°25'4 9.2
2018-Feb-13 08:30N 49°15' W 123°19'2 3.9
2018-Feb-13 08:00N 49°15' W 123°16'0 0.0
2018-Feb-13 07:30N 49°15' W 123°16'0 0.4
2018-Feb-13 07:00N 49°15' W 123°16'0 0.8
2018-Feb-13 06:30N 49°15' W 123°16'1 1.2
2018-Feb-13 05:58N 49°16' W 123°17'1 1.5
2018-Feb-13 05:30N 49°15' W 123°18'1 2.6
2018-Feb-13 05:00N 49°15' W 123°20'1 2.6
2018-Feb-13 04:30N 49°15' W 123°22'1 2.6
2018-Feb-13 04:00N 49°15' W 123°24'1 2.6
2018-Feb-13 03:30N 49°15' W 123°26'1 2.7
2018-Feb-13 03:00N 49°15' W 123°28'1 2.7
2018-Feb-13 02:29N 49°15' W 123°30'1 2.8
2018-Feb-13 02:00N 49°15' W 123°32'1 2.7
2018-Feb-13 01:29N 49°15' W 123°34'1 2.2
2018-Feb-13 00:58N 49°15' W 123°36'1 2.0
2018-Feb-13 00:27N 49°15' W 123°38'1 2.0
2018-Feb-12 23:58N 49°15' W 123°39'16 1.0
2018-Feb-12 08:01N 48°59' W 123°43'2 1.7
2018-Feb-12 06:49N 48°56' W 123°43'1 1.6
2018-Feb-12 06:30N 48°56' W 123°43'0 0.6
2018-Feb-12 06:00N 48°56' W 123°42'0 0.1
2018-Feb-12 05:30N 48°56' W 123°42'0 0.2
2018-Feb-12 05:00N 48°56' W 123°43'0 0.0
2018-Feb-12 04:30N 48°56' W 123°43'0 0.3
2018-Feb-12 04:00N 48°55' W 123°43'0 0.2
2018-Feb-12 03:30N 48°55' W 123°42'0 0.0
2018-Feb-12 03:01N 48°55' W 123°42'0 0.0
2018-Feb-11 14:14N 48°56' W 123°43'0 0.9
2018-Feb-11 14:00N 48°56' W 123°43'0 0.0
2018-Feb-11 13:30N 48°56' W 123°43'2 3.4
2018-Feb-11 13:00N 48°55' W 123°40'4 7.2
2018-Feb-11 12:31N 48°53' W 123°36'4 7.3
2018-Feb-11 12:00N 48°49' W 123°34'3 5.7
2018-Feb-11 11:31N 48°46' W 123°34'3 6.7
2018-Feb-11 11:01N 48°43' W 123°32'3 6.6
2018-Feb-11 10:30N 48°43' W 123°27'4 7.2
2018-Feb-11 10:01N 48°42' W 123°21'4 7.7
2018-Feb-11 09:30N 48°38' W 123°23'4 7.8
2018-Feb-11 09:00N 48°34' W 123°21'4 8.1
2018-Feb-11 08:31N 48°31' W 123°19'4 8.3
2018-Feb-11 08:01N 48°28' W 123°15'3 6.9
2018-Feb-11 07:31N 48°24' W 123°13'5 9.1
2018-Feb-11 07:00N 48°20' W 123°16'5 8.4
2018-Feb-11 06:26N 48°16' W 123°19'4 7.9
2018-Feb-11 05:56N 48°12' W 123°21'3 7.6
2018-Feb-11 05:30N 48°09' W 123°23'3 6.2
2018-Feb-11 05:00N 48°08' W 123°27'16 1.9
2018-Feb-10 20:29N 48°22' W 123°14'1 3.0
2018-Feb-10 20:00N 48°23' W 123°13'1 3.0
2018-Feb-10 19:30N 48°25' W 123°13'2 3.5
2018-Feb-10 19:00N 48°26' W 123°13'2 3.4
2018-Feb-10 18:30N 48°28' W 123°14'2 3.0
2018-Feb-10 18:00N 48°29' W 123°16'1 2.8
2018-Feb-10 17:30N 48°30' W 123°17'2 3.1
2018-Feb-10 16:58N 48°31' W 123°19'1 3.0
2018-Feb-10 16:30N 48°32' W 123°20'2 3.3
2018-Feb-10 16:01N 48°34' W 123°21'2 3.4
2018-Feb-10 15:31N 48°35' W 123°22'1 2.6
2018-Feb-10 14:57N 48°37' W 123°23'1 1.8
2018-Feb-10 14:30N 48°37' W 123°23'1 2.1
2018-Feb-10 14:00N 48°38' W 123°23'1 2.3
2018-Feb-10 13:30N 48°39' W 123°22'2 3.3
2018-Feb-10 13:00N 48°41' W 123°21'1 2.8
2018-Feb-10 12:30N 48°42' W 123°21'2 3.2
2018-Feb-10 12:00N 48°44' W 123°21'2 3.2
2018-Feb-10 11:30N 48°45' W 123°21'2 3.1
2018-Feb-10 11:00N 48°47' W 123°22'2 3.5
2018-Feb-10 10:30N 48°48' W 123°24'1 2.9
2018-Feb-10 10:00N 48°49' W 123°25'1 2.7
2018-Feb-10 09:30N 48°51' W 123°25'1 1.9
2018-Feb-10 09:00N 48°52' W 123°26'0 0.6
2018-Feb-10 08:30N 48°52' W 123°26'0 0.2
2018-Feb-10 07:58N 48°52' W 123°26'0 0.4
2018-Feb-10 07:30N 48°52' W 123°26'0 0.3
2018-Feb-10 07:00N 48°52' W 123°26'1 1.0
2018-Feb-10 06:30N 48°52' W 123°26'1 1.2
2018-Feb-10 06:00N 48°53' W 123°27'1 1.6
2018-Feb-10 05:30N 48°53' W 123°28'  
Track history (hours):
 
Tides and Currents Weather Stations Pressure Air Temp Water Temp Dewpoint Dewpoint Depression Visibility Wind Speed Wind Dir Waves Ship Positions

Helen J

Last reported at 2018-Feb-20 05:30 UTC. Time now 2018-Feb-20 05:55 UTC.
Position N 49°17' W 123°30'.

Length 15 m; draft 3.6 m.

Type: Towing. MMSI: 316024235.

Date/timePositionNaut miles runAvg speedWind from/ knotsBaromVisibWave heightAir tempDewpointWater temp
2018-Feb-20 05:30N 49°17' W 123°30'1 2.1
2018-Feb-20 05:01N 49°17' W 123°32'1 2.0
2018-Feb-20 04:30N 49°17' W 123°34'1 2.0
2018-Feb-20 04:00N 49°17' W 123°35'1 2.0
2018-Feb-20 03:24N 49°17' W 123°37'1 1.9
2018-Feb-20 02:54N 49°16' W 123°38'1 1.9
2018-Feb-20 02:22N 49°16' W 123°40'1 2.0
2018-Feb-20 01:37N 49°15' W 123°42'2 0.8
2018-Feb-19 23:13N 49°14' W 123°44'4 1.8
2018-Feb-19 21:15N 49°15' W 123°39'1 2.3
2018-Feb-19 20:51N 49°15' W 123°37'1 2.4
2018-Feb-19 20:26N 49°16' W 123°36'1 2.5
2018-Feb-19 20:00N 49°16' W 123°34'1 2.5
2018-Feb-19 19:28N 49°17' W 123°33'1 2.5
2018-Feb-19 19:01N 49°18' W 123°32'1 2.5
2018-Feb-19 18:30N 49°19' W 123°30'1 2.1
2018-Feb-19 18:01N 49°19' W 123°29'1 2.1
2018-Feb-19 17:30N 49°20' W 123°28'1 2.3
2018-Feb-19 16:56N 49°21' W 123°27'1 2.5
2018-Feb-19 16:23N 49°22' W 123°26'1 2.2
2018-Feb-19 15:58N 49°23' W 123°25'1 2.1
2018-Feb-19 15:30N 49°24' W 123°25'1 2.0
2018-Feb-19 15:00N 49°25' W 123°27'1 1.8
2018-Feb-19 14:31N 49°26' W 123°27'0 0.9
2018-Feb-19 14:01N 49°26' W 123°28'0 0.9
2018-Feb-19 13:29N 49°26' W 123°28'0 0.9
2018-Feb-19 13:00N 49°27' W 123°28'0 0.8
2018-Feb-19 12:30N 49°27' W 123°28'0 0.9
2018-Feb-19 12:00N 49°28' W 123°28'0 0.9
2018-Feb-19 11:30N 49°28' W 123°28'0 0.8
2018-Feb-19 11:01N 49°29' W 123°28'0 0.8
2018-Feb-19 10:30N 49°29' W 123°28'0 0.9
2018-Feb-19 10:00N 49°29' W 123°27'0 0.9
2018-Feb-19 09:31N 49°30' W 123°27'0 0.2
2018-Feb-19 09:00N 49°30' W 123°27'0 0.3
2018-Feb-19 08:31N 49°30' W 123°27'0 0.3
2018-Feb-19 08:00N 49°30' W 123°27'3 5.4
2018-Feb-19 07:30N 49°27' W 123°28'5 6.4
2018-Feb-19 06:42N 49°22' W 123°30'2 9.2
2018-Feb-19 06:30N 49°21' W 123°32'4 7.8
2018-Feb-19 06:01N 49°19' W 123°37'21 0.9
2018-Feb-18 06:48N 48°58' W 123°44'0 0.7
2018-Feb-18 06:26N 48°58' W 123°44'0 0.7
2018-Feb-18 06:00N 48°58' W 123°44'0 0.7
2018-Feb-18 05:30N 48°58' W 123°45'0 0.6
2018-Feb-18 05:01N 48°58' W 123°45'0 0.8
2018-Feb-18 04:28N 48°58' W 123°46'3 0.2
2018-Feb-17 10:12N 48°56' W 123°43'2 7.8
2018-Feb-17 10:00N 48°57' W 123°44'4 6.7
2018-Feb-17 09:25N 48°60' W 123°48'1 0.7
2018-Feb-17 08:03N 48°59' W 123°47'0 1.0
2018-Feb-17 07:41N 48°59' W 123°47'0 0.8
2018-Feb-17 07:26N 48°59' W 123°47'0 0.1
2018-Feb-17 06:57N 48°59' W 123°47'0 0.7
2018-Feb-17 06:28N 48°58' W 123°46'0 0.2
2018-Feb-17 05:37N 48°58' W 123°46'0 0.1
2018-Feb-17 05:28N 48°58' W 123°46'1 2.1
2018-Feb-17 04:56N 48°59' W 123°47'1 2.3
2018-Feb-17 04:27N 48°58' W 123°46'0 0.3
2018-Feb-17 03:13N 48°58' W 123°46'1 5.6
2018-Feb-17 02:57N 48°58' W 123°44'3 5.5
2018-Feb-17 02:30N 48°56' W 123°41'3 5.7
2018-Feb-17 02:00N 48°54' W 123°38'3 5.6
2018-Feb-17 01:30N 48°52' W 123°36'3 5.3
2018-Feb-17 01:00N 48°49' W 123°35'2 4.8
2018-Feb-17 00:30N 48°47' W 123°33'3 5.2
2018-Feb-17 00:00N 48°44' W 123°34'2 3.8
2018-Feb-16 23:30N 48°45' W 123°37'0 0.6
2018-Feb-16 23:00N 48°45' W 123°37'1 1.7
2018-Feb-16 22:30N 48°45' W 123°36'1 2.2
2018-Feb-16 22:00N 48°44' W 123°35'1 1.6
2018-Feb-16 21:30N 48°45' W 123°34'1 1.2
2018-Feb-16 21:00N 48°45' W 123°34'0 0.8
2018-Feb-16 20:30N 48°46' W 123°34'1 1.1
2018-Feb-16 20:00N 48°46' W 123°34'1 1.6
2018-Feb-16 19:30N 48°47' W 123°33'1 2.1
2018-Feb-16 19:00N 48°48' W 123°33'1 1.8
2018-Feb-16 18:30N 48°49' W 123°34'1 2.3
2018-Feb-16 18:00N 48°50' W 123°35'1 2.2
2018-Feb-16 17:30N 48°51' W 123°35'1 2.2
2018-Feb-16 17:00N 48°52' W 123°36'1 2.2
2018-Feb-16 16:30N 48°53' W 123°36'1 2.1
2018-Feb-16 16:00N 48°54' W 123°37'1 2.0
2018-Feb-16 15:30N 48°54' W 123°38'1 2.0
2018-Feb-16 15:00N 48°55' W 123°40'1 2.1
2018-Feb-16 14:30N 48°56' W 123°41'1 2.1
2018-Feb-16 14:00N 48°56' W 123°42'0 0.5
2018-Feb-16 13:30N 48°57' W 123°42'0 0.3
2018-Feb-16 13:00N 48°56' W 123°42'1 1.5
2018-Feb-16 12:30N 48°56' W 123°42'0 0.2
2018-Feb-16 12:00N 48°56' W 123°42'0 0.3
2018-Feb-16 11:30N 48°56' W 123°43'0 0.7
2018-Feb-16 11:00N 48°56' W 123°43'1 1.6
2018-Feb-16 10:29N 48°57' W 123°43'1 1.8
2018-Feb-16 09:59N 48°58' W 123°43'1 1.8
2018-Feb-16 09:28N 48°59' W 123°43'2 1.8
2018-Feb-16 08:25N 49°01' W 123°43'1 1.8
2018-Feb-16 07:56N 49°01' W 123°44'2 1.6
2018-Feb-16 06:49N 49°03' W 123°45'9 2.5
2018-Feb-16 03:06N 49°09' W 123°34'110.1
2018-Feb-16 02:59N 49°10' W 123°32'4 8.6
2018-Feb-16 02:30N 49°12' W 123°27'510.0
2018-Feb-16 01:59N 49°15' W 123°20'3 5.4
2018-Feb-16 01:30N 49°15' W 123°16'0 0.2
2018-Feb-16 01:00N 49°15' W 123°16'0 0.1
2018-Feb-16 00:30N 49°15' W 123°16'1 1.8
2018-Feb-16 00:00N 49°15' W 123°17'0 0.9
2018-Feb-15 23:30N 49°16' W 123°17'0 1.0
2018-Feb-15 23:00N 49°15' W 123°18'0 0.9
2018-Feb-15 22:30N 49°15' W 123°18'1 1.4
2018-Feb-15 22:01N 49°14' W 123°18'1 2.0
2018-Feb-15 21:30N 49°14' W 123°19'1 1.8
2018-Feb-15 20:59N 49°13' W 123°20'1 1.7
2018-Feb-15 20:30N 49°12' W 123°21'1 1.7
2018-Feb-15 20:01N 49°12' W 123°22'1 1.9
2018-Feb-15 19:30N 49°12' W 123°24'1 2.2
2018-Feb-15 18:59N 49°11' W 123°26'1 2.3
2018-Feb-15 18:30N 49°11' W 123°27'1 2.4
2018-Feb-15 17:58N 49°11' W 123°29'1 2.2
2018-Feb-15 17:27N 49°10' W 123°31'1 2.3
2018-Feb-15 17:00N 49°10' W 123°32'1 2.1
2018-Feb-15 16:28N 49°09' W 123°34'4 6.9
2018-Feb-15 15:55N 49°08' W 123°39'9 2.1
2018-Feb-15 11:28N 49°10' W 123°53'9 6.3
2018-Feb-15 10:02N 49°14' W 123°41'1 8.4
2018-Feb-15 09:58N 49°14' W 123°40'4 8.2
2018-Feb-15 09:30N 49°14' W 123°34'4 7.9
2018-Feb-15 08:57N 49°17' W 123°29'4 8.1
2018-Feb-15 08:30N 49°18' W 123°24'4 8.7
2018-Feb-15 08:00N 49°19' W 123°17'4 8.4
2018-Feb-15 07:30N 49°19' W 123°11'4 7.2
2018-Feb-15 07:00N 49°18' W 123°06'0 0.3
2018-Feb-15 06:30N 49°17' W 123°06'2 4.7
2018-Feb-15 06:01N 49°19' W 123°09'510.3
2018-Feb-15 05:30N 49°18' W 123°17'510.4
2018-Feb-15 05:00N 49°16' W 123°24'610.2
2018-Feb-15 04:28N 49°16' W 123°32'6 0.5
2018-Feb-14 17:09N 49°10' W 123°36'1 4.2
2018-Feb-14 16:56N 49°10' W 123°35'2 4.5
2018-Feb-14 16:29N 49°09' W 123°32'2 4.8
2018-Feb-14 16:00N 49°08' W 123°29'3 5.5
2018-Feb-14 15:30N 49°08' W 123°25'3 5.3
2018-Feb-14 15:00N 49°07' W 123°21'2 5.1
2018-Feb-14 14:30N 49°07' W 123°17'3 5.8
2018-Feb-14 14:00N 49°08' W 123°13'2 5.0
2018-Feb-14 13:31N 49°07' W 123°10'2 4.4
2018-Feb-14 13:00N 49°07' W 123°06'2 4.4
2018-Feb-14 12:30N 49°08' W 123°04'2 4.8
2018-Feb-14 12:00N 49°09' W 123°01'2 4.4
2018-Feb-14 11:30N 49°09' W 122°57'1 1.1
2018-Feb-14 11:00N 49°10' W 122°58'1 2.1
2018-Feb-14 10:31N 49°09' W 122°60'4 7.4
2018-Feb-14 09:59N 49°07' W 123°05'3 6.9
2018-Feb-14 09:30N 49°07' W 123°09'3 6.9
2018-Feb-14 09:00N 49°08' W 123°15'3 6.4
2018-Feb-14 08:29N 49°06' W 123°19'1 3.0
2018-Feb-14 08:00N 49°06' W 123°21'4 5.3
2018-Feb-14 07:19N 49°08' W 123°26'2 5.0
2018-Feb-14 06:57N 49°09' W 123°29'2 5.1
2018-Feb-14 06:29N 49°10' W 123°32'13 1.1
2018-Feb-13 18:54N 49°09' W 123°51'0 0.1
2018-Feb-13 15:49N 49°09' W 123°51'0 1.1
2018-Feb-13 15:30N 49°09' W 123°51'3 4.2
2018-Feb-13 14:41N 49°10' W 123°56'0 0.0
2018-Feb-13 13:59N 49°10' W 123°56'3 5.3
2018-Feb-13 13:25N 49°09' W 123°52'3 1.5
2018-Feb-13 11:45N 49°10' W 123°55'11 6.2
2018-Feb-13 09:56N 49°14' W 123°39'4 9.7
2018-Feb-13 09:29N 49°14' W 123°33'5 9.2
2018-Feb-13 08:58N 49°15' W 123°25'4 9.2
2018-Feb-13 08:30N 49°15' W 123°19'2 3.9
2018-Feb-13 08:00N 49°15' W 123°16'0 0.0
2018-Feb-13 07:30N 49°15' W 123°16'0 0.4
2018-Feb-13 07:00N 49°15' W 123°16'0 0.8
2018-Feb-13 06:30N 49°15' W 123°16'1 1.2
2018-Feb-13 05:58N 49°16' W 123°17'1 1.5
2018-Feb-13 05:30N 49°15' W 123°18'1 2.6
2018-Feb-13 05:00N 49°15' W 123°20'1 2.6
2018-Feb-13 04:30N 49°15' W 123°22'1 2.6
2018-Feb-13 04:00N 49°15' W 123°24'1 2.6
2018-Feb-13 03:30N 49°15' W 123°26'1 2.7
2018-Feb-13 03:00N 49°15' W 123°28'1 2.7
2018-Feb-13 02:29N 49°15' W 123°30'1 2.8
2018-Feb-13 02:00N 49°15' W 123°32'1 2.7
2018-Feb-13 01:29N 49°15' W 123°34'1 2.2
2018-Feb-13 00:58N 49°15' W 123°36'1 2.0
2018-Feb-13 00:27N 49°15' W 123°38'1 2.0
2018-Feb-12 23:58N 49°15' W 123°39'16 1.0
2018-Feb-12 08:01N 48°59' W 123°43'2 1.7
2018-Feb-12 06:49N 48°56' W 123°43'1 1.6
2018-Feb-12 06:30N 48°56' W 123°43'0 0.6
2018-Feb-12 06:00N 48°56' W 123°42'0 0.1
2018-Feb-12 05:30N 48°56' W 123°42'0 0.2
2018-Feb-12 05:00N 48°56' W 123°43'0 0.0
2018-Feb-12 04:30N 48°56' W 123°43'0 0.3
2018-Feb-12 04:00N 48°55' W 123°43'0 0.2
2018-Feb-12 03:30N 48°55' W 123°42'0 0.0
2018-Feb-12 03:01N 48°55' W 123°42'0 0.0
2018-Feb-11 14:14N 48°56' W 123°43'0 0.9
2018-Feb-11 14:00N 48°56' W 123°43'0 0.0
2018-Feb-11 13:30N 48°56' W 123°43'2 3.4
2018-Feb-11 13:00N 48°55' W 123°40'4 7.2
2018-Feb-11 12:31N 48°53' W 123°36'4 7.3
2018-Feb-11 12:00N 48°49' W 123°34'3 5.7
2018-Feb-11 11:31N 48°46' W 123°34'3 6.7
2018-Feb-11 11:01N 48°43' W 123°32'3 6.6
2018-Feb-11 10:30N 48°43' W 123°27'4 7.2
2018-Feb-11 10:01N 48°42' W 123°21'4 7.7
2018-Feb-11 09:30N 48°38' W 123°23'4 7.8
2018-Feb-11 09:00N 48°34' W 123°21'4 8.1
2018-Feb-11 08:31N 48°31' W 123°19'4 8.3
2018-Feb-11 08:01N 48°28' W 123°15'3 6.9
2018-Feb-11 07:31N 48°24' W 123°13'5 9.1
2018-Feb-11 07:00N 48°20' W 123°16'5 8.4
2018-Feb-11 06:26N 48°16' W 123°19'4 7.9
2018-Feb-11 05:56N 48°12' W 123°21'3 7.6
2018-Feb-11 05:30N 48°09' W 123°23'3 6.2
2018-Feb-11 05:00N 48°08' W 123°27'16 1.9
2018-Feb-10 20:29N 48°22' W 123°14'1 3.0
2018-Feb-10 20:00N 48°23' W 123°13'1 3.0
2018-Feb-10 19:30N 48°25' W 123°13'2 3.5
2018-Feb-10 19:00N 48°26' W 123°13'2 3.4
2018-Feb-10 18:30N 48°28' W 123°14'2 3.0
2018-Feb-10 18:00N 48°29' W 123°16'1 2.8
2018-Feb-10 17:30N 48°30' W 123°17'2 3.1
2018-Feb-10 16:58N 48°31' W 123°19'1 3.0
2018-Feb-10 16:30N 48°32' W 123°20'2 3.3
2018-Feb-10 16:01N 48°34' W 123°21'2 3.4
2018-Feb-10 15:31N 48°35' W 123°22'1 2.6
2018-Feb-10 14:57N 48°37' W 123°23'1 1.8
2018-Feb-10 14:30N 48°37' W 123°23'1 2.1
2018-Feb-10 14:00N 48°38' W 123°23'1 2.3
2018-Feb-10 13:30N 48°39' W 123°22'2 3.3
2018-Feb-10 13:00N 48°41' W 123°21'1 2.8
2018-Feb-10 12:30N 48°42' W 123°21'2 3.2
2018-Feb-10 12:00N 48°44' W 123°21'2 3.2
2018-Feb-10 11:30N 48°45' W 123°21'2 3.1
2018-Feb-10 11:00N 48°47' W 123°22'2 3.5
2018-Feb-10 10:30N 48°48' W 123°24'1 2.9
2018-Feb-10 10:00N 48°49' W 123°25'1 2.7
2018-Feb-10 09:30N 48°51' W 123°25'1 1.9
2018-Feb-10 09:00N 48°52' W 123°26'0 0.6
2018-Feb-10 08:30N 48°52' W 123°26'0 0.2
2018-Feb-10 07:58N 48°52' W 123°26'0 0.4
2018-Feb-10 07:30N 48°52' W 123°26'0 0.3
2018-Feb-10 07:00N 48°52' W 123°26'1 1.0
2018-Feb-10 06:30N 48°52' W 123°26'1 1.2
2018-Feb-10 06:00N 48°53' W 123°27'1 1.6
2018-Feb-10 05:30N 48°53' W 123°28'  

Dump ship's entire track history